createdAt,value
2023-05-09T00:00:05.795Z,21.63
2023-05-09T00:02:34.455Z,21.25
2023-05-09T00:05:03.914Z,21.38
2023-05-09T00:07:31.490Z,21.73
2023-05-09T00:09:57.857Z,21.78
2023-05-09T00:12:24.324Z,21.87
2023-05-09T00:14:51.661Z,21.89
2023-05-09T00:17:18.562Z,21.10
2023-05-09T00:19:45.028Z,21.39
2023-05-09T00:22:13.025Z,21.06
2023-05-09T00:24:39.569Z,21.42
2023-05-09T00:27:06.007Z,21.62
2023-05-09T00:29:32.392Z,21.15
2023-05-09T00:31:58.808Z,21.13
2023-05-09T00:34:25.253Z,21.22
2023-05-09T00:36:51.662Z,21.12
2023-05-09T00:39:18.037Z,21.03
2023-05-09T00:41:44.605Z,20.80
2023-05-09T00:44:11.059Z,21.24
2023-05-09T00:46:38.526Z,21.78
2023-05-09T00:49:05.054Z,21.45
2023-05-09T00:51:32.587Z,21.22
2023-05-09T00:53:59.300Z,20.90
2023-05-09T00:56:25.675Z,21.64
2023-05-09T00:58:52.628Z,21.78
2023-05-09T01:01:19.122Z,21.75
2023-05-09T01:03:45.760Z,22.04
2023-05-09T01:06:23.021Z,21.73
2023-05-09T01:09:11.954Z,22.41
2023-05-09T01:11:50.757Z,21.83
2023-05-09T01:14:41.968Z,21.69
2023-05-09T01:17:27.744Z,22.00
2023-05-09T01:20:02.194Z,21.13
2023-05-09T01:22:35.898Z,21.00
2023-05-09T01:25:37.044Z,22.14
2023-05-09T01:28:19.483Z,23.63
2023-05-09T01:30:46.976Z,23.72
2023-05-09T01:33:19.304Z,23.53
2023-05-09T01:35:50.138Z,23.82
2023-05-09T01:38:18.966Z,23.80
2023-05-09T01:40:48.387Z,23.75
2023-05-09T01:43:17.370Z,23.42
2023-05-09T01:45:45.051Z,23.85
2023-05-09T01:48:12.866Z,23.79
2023-05-09T01:50:40.089Z,23.79
2023-05-09T01:53:06.771Z,23.67
2023-05-09T01:55:34.888Z,23.87
2023-05-09T01:58:03.851Z,23.70
2023-05-09T02:00:31.516Z,23.65
2023-05-09T02:02:58.540Z,23.30
2023-05-09T02:05:27.394Z,23.61
2023-05-09T02:07:55.312Z,23.41
2023-05-09T02:10:22.540Z,23.70
2023-05-09T02:12:48.997Z,23.49
2023-05-09T02:15:15.892Z,23.31
2023-05-09T02:17:42.622Z,23.60
2023-05-09T02:20:10.098Z,23.12
2023-05-09T02:22:36.772Z,23.49
2023-05-09T02:25:04.972Z,23.19
2023-05-09T02:27:33.792Z,22.97
2023-05-09T02:30:04.096Z,22.73
2023-05-09T02:32:31.951Z,22.84
2023-05-09T02:34:59.404Z,22.77
2023-05-09T02:37:26.295Z,22.58
2023-05-09T02:39:52.799Z,22.70
2023-05-09T02:42:21.229Z,22.20
2023-05-09T02:44:47.717Z,22.51
2023-05-09T02:47:14.257Z,22.44
2023-05-09T02:49:40.554Z,22.64
2023-05-09T02:52:06.980Z,22.48
2023-05-09T02:54:33.275Z,22.10
2023-05-09T02:56:59.807Z,22.44
2023-05-09T02:59:26.372Z,22.83
2023-05-09T03:01:52.859Z,22.80
2023-05-09T03:04:19.998Z,22.82
2023-05-09T03:06:46.445Z,22.71
2023-05-09T03:09:12.895Z,22.58
2023-05-09T03:11:39.362Z,22.52
2023-05-09T03:14:06.252Z,22.64
2023-05-09T03:16:32.641Z,22.47
2023-05-09T03:18:59.029Z,22.29
2023-05-09T03:21:25.774Z,22.27
2023-05-09T03:23:52.236Z,22.32
2023-05-09T03:26:18.604Z,22.52
2023-05-09T03:28:45.796Z,22.57
2023-05-09T03:31:12.246Z,22.03
2023-05-09T03:33:38.645Z,22.66
2023-05-09T03:36:05.273Z,22.53
2023-05-09T03:38:31.655Z,22.85
2023-05-09T03:40:58.095Z,22.69
2023-05-09T03:43:24.813Z,22.83
2023-05-09T03:45:51.250Z,22.71
2023-05-09T03:48:17.643Z,22.63
2023-05-09T03:50:43.942Z,22.58
2023-05-09T03:53:10.273Z,22.05
2023-05-09T03:55:36.600Z,22.80
2023-05-09T03:58:03.311Z,22.93
2023-05-09T04:00:29.759Z,22.76
2023-05-09T04:02:56.552Z,23.12
2023-05-09T04:05:23.143Z,22.97
2023-05-09T04:07:49.557Z,22.01
2023-05-09T04:10:15.956Z,22.89
2023-05-09T04:12:42.393Z,23.25
2023-05-09T04:15:09.584Z,23.78
2023-05-09T04:17:36.251Z,23.64
2023-05-09T04:20:03.118Z,23.68
2023-05-09T04:22:29.514Z,23.84
2023-05-09T04:24:56.164Z,23.42
2023-05-09T04:27:23.962Z,23.71
2023-05-09T04:29:50.394Z,23.33
2023-05-09T04:32:17.583Z,23.77
2023-05-09T04:34:44.007Z,23.64
2023-05-09T04:37:11.048Z,23.96
2023-05-09T04:39:37.413Z,24.01
2023-05-09T04:42:04.384Z,23.94
2023-05-09T04:44:31.257Z,23.87
2023-05-09T04:46:58.093Z,24.44
2023-05-09T04:49:24.675Z,24.57
2023-05-09T04:51:51.346Z,24.36
2023-05-09T04:54:17.707Z,24.70
2023-05-09T04:56:44.123Z,24.04
2023-05-09T04:59:10.504Z,24.33
2023-05-09T05:01:36.941Z,24.53
2023-05-09T05:04:03.395Z,24.14
2023-05-09T05:06:29.774Z,24.11
2023-05-09T05:08:56.127Z,24.04
2023-05-09T05:11:22.465Z,24.09
2023-05-09T05:13:48.792Z,24.55
2023-05-09T05:16:15.120Z,24.35
2023-05-09T05:18:41.456Z,24.64
2023-05-09T05:21:08.454Z,24.72
2023-05-09T05:23:40.887Z,24.67
2023-05-09T05:26:07.175Z,24.69
2023-05-09T05:28:33.473Z,24.79
2023-05-09T05:30:59.784Z,24.90
2023-05-09T05:33:26.083Z,24.95
2023-05-09T05:35:52.376Z,24.66
2023-05-09T05:38:18.751Z,25.05
2023-05-09T05:40:45.203Z,24.85
2023-05-09T05:43:11.585Z,25.43
2023-05-09T05:45:38.089Z,25.27
2023-05-09T05:48:04.586Z,25.32
2023-05-09T05:50:30.930Z,24.68
2023-05-09T05:52:57.255Z,26.26
2023-05-09T05:55:23.530Z,26.64
2023-05-09T05:57:49.861Z,27.08
2023-05-09T06:00:16.714Z,26.15
2023-05-09T06:02:44.509Z,26.48
2023-05-09T06:05:11.324Z,26.70
2023-05-09T06:07:37.631Z,27.45
2023-05-09T06:10:04.896Z,27.29
2023-05-09T06:12:31.366Z,26.40
2023-05-09T06:14:57.840Z,26.50
2023-05-09T06:17:24.154Z,27.10
2023-05-09T06:19:50.512Z,26.61
2023-05-09T06:22:16.796Z,26.29
2023-05-09T06:24:43.090Z,25.94
2023-05-09T06:27:09.385Z,25.64
2023-05-09T06:29:35.906Z,25.75
2023-05-09T06:32:02.339Z,26.39
2023-05-09T06:34:28.679Z,26.92
2023-05-09T06:36:54.975Z,26.57
2023-05-09T06:39:21.330Z,27.06
2023-05-09T06:41:47.876Z,27.36
2023-05-09T06:44:14.172Z,27.57
2023-05-09T06:46:40.543Z,27.89
2023-05-09T06:49:06.884Z,27.77
2023-05-09T06:51:33.207Z,27.56
2023-05-09T06:53:59.567Z,26.98
2023-05-09T06:56:26.923Z,26.69
2023-05-09T06:58:53.491Z,27.84
2023-05-09T07:01:19.889Z,28.41
2023-05-09T07:03:47.486Z,27.95
2023-05-09T07:06:13.823Z,27.59
2023-05-09T07:08:40.186Z,27.64
2023-05-09T07:11:06.560Z,28.47
2023-05-09T07:13:32.874Z,28.00
2023-05-09T07:15:59.302Z,28.59
2023-05-09T07:18:25.674Z,28.84
2023-05-09T07:20:52.018Z,27.15
2023-05-09T07:23:18.514Z,28.66
2023-05-09T07:25:45.346Z,28.23
2023-05-09T07:28:12.710Z,28.24
2023-05-09T07:30:39.022Z,28.41
2023-05-09T07:33:05.396Z,28.95
2023-05-09T07:35:31.874Z,29.09
2023-05-09T07:37:58.140Z,29.07
2023-05-09T07:40:24.456Z,29.71
2023-05-09T07:42:51.581Z,29.56
2023-05-09T07:45:19.389Z,29.53
2023-05-09T07:47:46.952Z,28.75
2023-05-09T07:50:13.301Z,28.69
2023-05-09T07:52:39.694Z,29.20
2023-05-09T07:55:06.764Z,29.67
2023-05-09T07:57:33.121Z,30.89
2023-05-09T07:59:59.475Z,30.63
2023-05-09T08:02:26.290Z,30.59
2023-05-09T08:04:52.639Z,30.02
2023-05-09T08:07:18.970Z,30.88
2023-05-09T08:09:45.274Z,29.45
2023-05-09T08:12:11.662Z,29.63
2023-05-09T08:14:37.981Z,29.61
2023-05-09T08:17:04.327Z,29.91
2023-05-09T08:19:30.680Z,30.39
2023-05-09T08:21:57.104Z,29.19
2023-05-09T08:24:23.429Z,30.16
2023-05-09T08:26:49.755Z,30.15
2023-05-09T08:29:17.424Z,29.82
2023-05-09T08:31:43.835Z,28.87
2023-05-09T08:34:10.532Z,29.05
2023-05-09T08:36:37.052Z,29.52
2023-05-09T08:39:03.402Z,30.70
2023-05-09T08:41:29.854Z,30.68
2023-05-09T08:43:56.278Z,30.44
2023-05-09T08:46:24.826Z,30.48
2023-05-09T08:48:51.493Z,30.36
2023-05-09T08:51:17.938Z,29.59
2023-05-09T08:53:44.301Z,29.22
2023-05-09T08:56:10.720Z,28.65
2023-05-09T08:58:37.249Z,29.12
2023-05-09T09:01:06.493Z,29.16
2023-05-09T09:03:32.944Z,30.11
2023-05-09T09:05:59.400Z,29.56
2023-05-09T09:08:26.193Z,29.35
2023-05-09T09:10:52.526Z,29.56
2023-05-09T09:13:19.078Z,29.19
2023-05-09T09:15:46.135Z,30.20
2023-05-09T09:18:13.131Z,30.05
2023-05-09T09:20:46.570Z,30.80
2023-05-09T09:23:12.904Z,30.98
2023-05-09T09:25:39.254Z,30.22
2023-05-09T09:28:05.785Z,31.00
2023-05-09T09:30:32.573Z,31.48
2023-05-09T09:32:59.021Z,31.23
2023-05-09T09:35:25.363Z,31.43
2023-05-09T09:37:51.655Z,31.65
2023-05-09T09:40:18.166Z,32.14
2023-05-09T09:42:45.548Z,32.78
2023-05-09T09:45:12.554Z,32.60
2023-05-09T09:47:39.117Z,32.69
2023-05-09T09:50:12.498Z,32.06
2023-05-09T09:52:42.820Z,31.74
2023-05-09T09:55:09.460Z,32.39
2023-05-09T09:57:37.206Z,32.49
2023-05-09T10:00:07.035Z,32.91
2023-05-09T10:02:33.417Z,32.82
2023-05-09T10:05:06.570Z,33.63
2023-05-09T10:07:35.947Z,33.95
2023-05-09T10:10:05.903Z,33.93
2023-05-09T10:12:34.529Z,32.80
2023-05-09T10:15:01.962Z,33.90
2023-05-09T10:17:28.495Z,33.19
2023-05-09T10:19:54.873Z,33.26
2023-05-09T10:22:21.175Z,33.31
2023-05-09T10:24:48.301Z,33.78
2023-05-09T10:27:14.993Z,33.67
2023-05-09T10:29:44.788Z,33.92
2023-05-09T10:32:12.604Z,34.05
2023-05-09T10:34:39.780Z,34.10
2023-05-09T10:37:06.501Z,33.85
2023-05-09T10:39:32.840Z,33.10
2023-05-09T10:41:59.207Z,33.82
2023-05-09T10:44:25.502Z,33.26
2023-05-09T10:46:51.894Z,34.28
2023-05-09T10:49:18.212Z,33.53
2023-05-09T10:51:45.049Z,34.02
2023-05-09T10:54:15.742Z,33.80
2023-05-09T10:56:42.074Z,33.96
2023-05-09T10:59:18.078Z,34.51
2023-05-09T11:01:46.469Z,34.82
2023-05-09T11:04:14.403Z,34.85
2023-05-09T11:06:46.401Z,35.35
2023-05-09T11:09:27.069Z,34.84
2023-05-09T11:11:57.885Z,35.38
2023-05-09T11:14:31.247Z,34.83
2023-05-09T11:16:58.587Z,35.15
2023-05-09T11:19:38.319Z,35.08
2023-05-09T11:22:32.839Z,35.61
2023-05-09T11:25:06.439Z,35.65
2023-05-09T11:27:43.376Z,35.70
2023-05-09T11:30:10.689Z,36.66
2023-05-09T11:32:44.488Z,35.94
2023-05-09T11:35:12.486Z,36.04
2023-05-09T11:37:46.403Z,35.80
2023-05-09T11:40:13.256Z,36.06
2023-05-09T11:42:44.703Z,35.14
2023-05-09T11:45:14.491Z,35.18
2023-05-09T11:47:41.152Z,35.55
2023-05-09T11:50:08.319Z,35.92
2023-05-09T11:52:34.736Z,35.12
2023-05-09T11:55:01.540Z,35.51
2023-05-09T11:57:28.537Z,35.03
2023-05-09T11:59:54.904Z,34.81
2023-05-09T12:02:22.536Z,35.43
2023-05-09T12:04:49.240Z,34.45
2023-05-09T12:07:17.072Z,34.45
2023-05-09T12:09:43.836Z,35.38
2023-05-09T12:12:13.622Z,36.25
2023-05-09T12:14:40.507Z,36.98
2023-05-09T12:17:07.508Z,35.93
2023-05-09T12:19:33.891Z,35.34
2023-05-09T12:22:01.144Z,35.01
2023-05-09T12:24:28.437Z,36.00
2023-05-09T12:26:55.654Z,36.59
2023-05-09T12:29:22.417Z,35.95
2023-05-09T12:31:49.083Z,36.29
2023-05-09T12:34:15.442Z,36.38
2023-05-09T12:36:50.635Z,36.66
2023-05-09T12:39:22.429Z,35.89
2023-05-09T12:42:00.569Z,36.59
2023-05-09T12:44:29.315Z,35.48
2023-05-09T12:46:59.537Z,34.94
2023-05-09T12:49:26.006Z,35.59
2023-05-09T12:51:53.547Z,34.78
2023-05-09T12:54:22.892Z,35.18
2023-05-09T12:56:50.349Z,34.94
2023-05-09T12:59:16.627Z,35.96
2023-05-09T13:01:42.960Z,36.28
2023-05-09T13:04:12.544Z,36.63
2023-05-09T13:06:47.630Z,36.61
2023-05-09T13:09:14.843Z,36.16
2023-05-09T13:11:41.154Z,35.45
2023-05-09T13:14:07.425Z,35.70
2023-05-09T13:16:34.182Z,35.62
2023-05-09T13:19:01.936Z,36.29
2023-05-09T13:21:28.258Z,36.55
2023-05-09T13:23:54.663Z,36.54
2023-05-09T13:26:21.502Z,35.68
2023-05-09T13:28:47.897Z,36.19
2023-05-09T13:31:14.370Z,35.93
2023-05-09T13:33:40.794Z,36.37
2023-05-09T13:36:07.317Z,36.36
2023-05-09T13:38:37.061Z,35.87
2023-05-09T13:41:03.353Z,36.16
2023-05-09T13:43:29.744Z,35.55
2023-05-09T13:45:56.038Z,35.74
2023-05-09T13:48:22.333Z,34.43
2023-05-09T13:50:48.642Z,33.52
2023-05-09T13:53:14.934Z,34.53
2023-05-09T13:55:41.256Z,35.18
2023-05-09T13:58:07.642Z,34.80
2023-05-09T14:00:34.015Z,35.07
2023-05-09T14:03:01.476Z,34.27
2023-05-09T14:05:28.036Z,35.22
2023-05-09T14:07:54.749Z,36.47
2023-05-09T14:10:21.838Z,35.08
2023-05-09T14:12:48.540Z,35.19
2023-05-09T14:15:14.946Z,35.09
2023-05-09T14:17:43.640Z,34.92
2023-05-09T14:20:10.838Z,35.56
2023-05-09T14:22:37.186Z,35.38
2023-05-09T14:25:03.549Z,35.49
2023-05-09T14:27:30.042Z,35.73
2023-05-09T14:29:56.447Z,35.62
2023-05-09T14:32:22.741Z,34.79
2023-05-09T14:34:52.201Z,34.92
2023-05-09T14:37:18.636Z,33.82
2023-05-09T14:39:49.400Z,33.52
2023-05-09T14:42:16.665Z,33.73
2023-05-09T14:44:43.307Z,33.46
2023-05-09T14:47:09.695Z,34.07
2023-05-09T14:49:36.608Z,33.92
2023-05-09T14:52:03.730Z,34.18
2023-05-09T14:54:30.244Z,34.44
2023-05-09T14:56:57.244Z,34.55
2023-05-09T14:59:23.552Z,34.49
2023-05-09T15:01:51.697Z,34.32
2023-05-09T15:04:18.090Z,34.71
2023-05-09T15:06:45.154Z,34.69
2023-05-09T15:09:11.505Z,35.27
2023-05-09T15:11:47.838Z,34.85
2023-05-09T15:14:15.394Z,34.51
2023-05-09T15:16:41.964Z,34.54
2023-05-09T15:19:08.329Z,34.79
2023-05-09T15:21:35.023Z,34.25
2023-05-09T15:24:02.016Z,34.11
2023-05-09T15:26:28.487Z,34.56
2023-05-09T15:28:57.204Z,34.26
2023-05-09T15:31:24.819Z,33.73
2023-05-09T15:33:57.851Z,33.86
2023-05-09T15:36:24.154Z,33.62
2023-05-09T15:38:50.478Z,33.66
2023-05-09T15:41:16.992Z,34.04
2023-05-09T15:43:43.576Z,33.76
2023-05-09T15:46:09.892Z,33.57
2023-05-09T15:48:36.255Z,33.79
2023-05-09T15:51:03.926Z,33.37
2023-05-09T15:53:30.261Z,33.51
2023-05-09T15:55:57.019Z,33.82
2023-05-09T15:58:23.524Z,33.99
2023-05-09T16:00:49.855Z,34.07
2023-05-09T16:03:16.998Z,34.30
2023-05-09T16:05:43.887Z,33.71
2023-05-09T16:08:10.355Z,33.63
2023-05-09T16:10:36.668Z,33.55
2023-05-09T16:13:03.240Z,33.34
2023-05-09T16:15:29.627Z,33.65
2023-05-09T16:17:56.373Z,33.79
2023-05-09T16:20:23.012Z,33.41
2023-05-09T16:22:49.383Z,33.38
2023-05-09T16:25:16.132Z,33.25
2023-05-09T16:27:42.541Z,33.57
2023-05-09T16:30:09.163Z,33.61
2023-05-09T16:32:35.612Z,33.58
2023-05-09T16:35:02.059Z,33.57
2023-05-09T16:37:29.728Z,33.31
2023-05-09T16:39:56.418Z,33.76
2023-05-09T16:42:22.813Z,33.71
2023-05-09T16:44:49.242Z,32.86
2023-05-09T16:47:15.813Z,33.65
2023-05-09T16:49:42.353Z,33.19
2023-05-09T16:52:08.668Z,33.15
2023-05-09T16:54:34.994Z,32.81
2023-05-09T16:57:01.544Z,33.01
2023-05-09T16:59:27.967Z,33.33
2023-05-09T17:01:54.611Z,33.58
2023-05-09T17:04:21.029Z,33.30
2023-05-09T17:06:47.384Z,33.47
2023-05-09T17:09:13.696Z,33.28
2023-05-09T17:11:39.984Z,33.32
2023-05-09T17:14:06.295Z,33.01
2023-05-09T17:16:32.719Z,32.61
2023-05-09T17:18:59.206Z,32.40
2023-05-09T17:21:25.967Z,32.72
2023-05-09T17:23:53.894Z,32.67
2023-05-09T17:26:20.846Z,31.98
2023-05-09T17:28:47.828Z,31.84
2023-05-09T17:31:14.340Z,32.58
2023-05-09T17:33:40.838Z,32.26
2023-05-09T17:36:07.274Z,32.23
2023-05-09T17:38:33.818Z,32.47
2023-05-09T17:41:00.565Z,32.91
2023-05-09T17:43:28.323Z,32.94
2023-05-09T17:45:54.873Z,32.83
2023-05-09T17:48:21.270Z,32.85
2023-05-09T17:50:47.598Z,32.60
2023-05-09T17:53:14.257Z,32.47
2023-05-09T17:55:41.127Z,32.20
2023-05-09T17:58:08.088Z,32.02
2023-05-09T18:00:34.622Z,32.19
2023-05-09T18:03:01.237Z,32.02
2023-05-09T18:05:27.703Z,31.71
2023-05-09T18:07:54.063Z,31.82
2023-05-09T18:10:20.456Z,31.90
2023-05-09T18:12:47.545Z,31.85
2023-05-09T18:15:14.023Z,31.98
2023-05-09T18:17:40.429Z,31.90
2023-05-09T18:20:07.148Z,31.84
2023-05-09T18:22:33.460Z,31.14
2023-05-09T18:25:00.657Z,31.49
2023-05-09T18:27:27.473Z,30.79
2023-05-09T18:29:53.817Z,31.25
2023-05-09T18:32:20.970Z,31.23
2023-05-09T18:34:48.492Z,30.77
2023-05-09T18:37:14.874Z,30.84
2023-05-09T18:39:41.154Z,30.46
2023-05-09T18:42:07.583Z,30.59
2023-05-09T18:44:34.134Z,30.90
2023-05-09T18:47:00.749Z,31.31
2023-05-09T18:49:27.074Z,31.41
2023-05-09T18:51:53.462Z,31.43
2023-05-09T18:54:19.982Z,31.07
2023-05-09T18:56:46.701Z,31.16
2023-05-09T18:59:16.184Z,31.11
2023-05-09T19:01:43.925Z,31.35
2023-05-09T19:04:10.333Z,31.11
2023-05-09T19:06:36.712Z,30.78
2023-05-09T19:09:04.238Z,30.48
2023-05-09T19:11:30.571Z,30.67
2023-05-09T19:13:56.954Z,30.87
2023-05-09T19:16:24.929Z,30.84
2023-05-09T19:18:51.320Z,30.59
2023-05-09T19:21:18.722Z,30.62
2023-05-09T19:23:47.706Z,30.57
2023-05-09T19:26:15.401Z,30.51
2023-05-09T19:28:41.974Z,30.31
2023-05-09T19:31:09.064Z,30.30
2023-05-09T19:33:35.392Z,30.16
2023-05-09T19:36:01.806Z,30.13
2023-05-09T19:38:28.367Z,30.09
2023-05-09T19:40:54.751Z,30.08
2023-05-09T19:43:21.071Z,30.00
2023-05-09T19:45:47.404Z,30.07
2023-05-09T19:48:16.721Z,29.56
2023-05-09T19:50:43.108Z,29.56
2023-05-09T19:53:09.446Z,29.62
2023-05-09T19:55:35.851Z,29.73
2023-05-09T19:58:02.212Z,30.13
2023-05-09T20:00:28.578Z,29.77
2023-05-09T20:02:55.387Z,29.37
2023-05-09T20:05:21.846Z,29.36
2023-05-09T20:07:49.074Z,29.41
2023-05-09T20:10:16.142Z,29.57
2023-05-09T20:12:43.369Z,29.62
2023-05-09T20:15:09.906Z,29.34
2023-05-09T20:17:36.199Z,29.66
2023-05-09T20:20:02.505Z,29.36
2023-05-09T20:22:28.829Z,29.33
2023-05-09T20:24:55.115Z,29.26
2023-05-09T20:27:21.969Z,29.26
2023-05-09T20:29:48.332Z,29.50
2023-05-09T20:32:14.691Z,29.17
2023-05-09T20:34:41.468Z,29.36
2023-05-09T20:37:07.868Z,29.53
2023-05-09T20:39:34.172Z,29.34
2023-05-09T20:42:02.455Z,29.46
2023-05-09T20:44:29.173Z,29.30
2023-05-09T20:46:55.516Z,29.22
2023-05-09T20:49:21.857Z,29.03
2023-05-09T20:51:48.221Z,29.11
2023-05-09T20:54:14.524Z,29.02
2023-05-09T20:56:41.069Z,28.63
2023-05-09T20:59:07.348Z,29.04
2023-05-09T21:01:36.702Z,29.31
2023-05-09T21:04:04.074Z,28.97
2023-05-09T21:06:31.005Z,29.05
2023-05-09T21:08:57.325Z,29.17
2023-05-09T21:11:23.609Z,29.19
2023-05-09T21:13:49.993Z,29.20
2023-05-09T21:16:16.279Z,29.03
2023-05-09T21:18:42.598Z,29.03
2023-05-09T21:21:08.895Z,29.11
2023-05-09T21:23:35.179Z,29.02
2023-05-09T21:26:02.336Z,29.03
2023-05-09T21:28:28.804Z,28.90
2023-05-09T21:30:55.216Z,28.87
2023-05-09T21:33:21.613Z,28.81
2023-05-09T21:35:47.929Z,28.90
2023-05-09T21:38:14.232Z,28.78
2023-05-09T21:40:43.667Z,28.64
2023-05-09T21:43:09.992Z,28.79
2023-05-09T21:45:36.300Z,28.78
2023-05-09T21:48:02.731Z,28.91
2023-05-09T21:50:29.111Z,28.90
2023-05-09T21:52:56.222Z,28.86
2023-05-09T21:55:22.612Z,28.76
2023-05-09T21:57:48.920Z,28.39
2023-05-09T22:00:17.040Z,28.43
2023-05-09T22:02:43.803Z,28.78
2023-05-09T22:05:10.507Z,28.84
2023-05-09T22:07:37.149Z,28.95
2023-05-09T22:10:03.708Z,28.76
2023-05-09T22:12:30.206Z,28.71
2023-05-09T22:14:57.013Z,28.69
2023-05-09T22:17:24.209Z,28.70
2023-05-09T22:19:50.613Z,28.64
2023-05-09T22:22:16.921Z,28.64
2023-05-09T22:24:43.231Z,28.63
2023-05-09T22:27:10.259Z,28.61
2023-05-09T22:29:36.621Z,28.60
2023-05-09T22:32:03.640Z,28.75
2023-05-09T22:34:30.184Z,28.68
2023-05-09T22:36:56.553Z,28.70
2023-05-09T22:39:22.840Z,28.58
2023-05-09T22:41:49.266Z,28.54
2023-05-09T22:44:15.611Z,28.49
2023-05-09T22:46:41.987Z,28.58
2023-05-09T22:49:08.863Z,28.47
2023-05-09T22:51:35.139Z,28.43
2023-05-09T22:54:01.461Z,28.23
2023-05-09T22:56:27.781Z,28.14
2023-05-09T22:58:54.112Z,28.04
2023-05-09T23:01:20.493Z,28.13
2023-05-09T23:03:46.917Z,27.84
2023-05-09T23:06:13.206Z,27.94
2023-05-09T23:08:39.528Z,27.85
2023-05-09T23:11:05.987Z,27.48
2023-05-09T23:13:32.450Z,27.47
2023-05-09T23:15:58.778Z,27.27
2023-05-09T23:18:25.672Z,27.06
2023-05-09T23:20:52.041Z,27.17
2023-05-09T23:23:18.358Z,27.32
2023-05-09T23:25:44.654Z,27.35
2023-05-09T23:28:10.940Z,27.18
2023-05-09T23:30:37.277Z,27.45
2023-05-09T23:33:03.608Z,27.52
2023-05-09T23:35:29.963Z,27.47
2023-05-09T23:37:56.376Z,27.50
2023-05-09T23:40:22.704Z,27.50
2023-05-09T23:42:49.063Z,27.44
2023-05-09T23:45:15.882Z,27.07
2023-05-09T23:47:42.315Z,27.25
2023-05-09T23:50:08.771Z,27.20
2023-05-09T23:52:35.041Z,27.12
2023-05-09T23:55:01.323Z,27.22
2023-05-09T23:57:27.608Z,27.09
2023-05-09T23:59:53.911Z,26.96
